K K — WDE8363 — position and weather

sailwx.info

Track history (hours):
 
Tides and Currents Weather Stations Pressure Air Temp Water Temp Dewpoint Dewpoint Depression Visibility Wind Speed Wind Dir Waves Ship Positions

K K

Owner: Lafayette Workboat Rentals LLC., Broussard, LA. More information available from US FCC via Universal Licensing System and Coast Guard Vessel Documentation Center.

Last reported at 2018-May-24 08:54 UTC. Time now 2018-May-24 14:06 UTC.
Position N 28°57' W 095°18'.

Length 16 m; draft 6 m.

Type: Ship (hazmat cat D). MMSI: 367404620.

Date/timePositionNaut miles runAvg speedWind from/ knotsBaromVisibWave heightAir tempDewpointWater temp
2018-May-24 08:54N 28°57' W 095°18'2 5.9
2018-May-24 08:30N 28°58' W 095°17'3 5.8
2018-May-24 08:00N 29°01' W 095°15'3 5.3
2018-May-24 07:30N 29°03' W 095°13'3 5.2
2018-May-24 07:00N 29°05' W 095°12'3 5.2
2018-May-24 06:30N 29°08' W 095°11'3 5.5
2018-May-24 06:00N 29°09' W 095°08'3 5.6
2018-May-24 05:30N 29°11' W 095°06'3 5.6
2018-May-24 05:00N 29°12' W 095°03'2 4.7
2018-May-24 04:30N 29°14' W 095°01'3 5.3
2018-May-24 04:00N 29°16' W 094°59'3 5.2
2018-May-24 03:30N 29°17' W 094°57'3 5.3
2018-May-24 03:00N 29°17' W 094°54'3 5.9
2018-May-24 02:30N 29°19' W 094°51'3 5.7
2018-May-24 02:00N 29°21' W 094°49'10 6.5
2018-May-24 00:28N 29°31' W 094°53'3 6.4
2018-May-24 00:00N 29°33' W 094°55'3 6.2
2018-May-23 23:30N 29°36' W 094°57'3 6.2
2018-May-23 23:00N 29°39' W 094°58'3 6.3
2018-May-23 22:30N 29°41' W 094°59'4 5.5
2018-May-23 21:44N 29°44' W 095°03'2 6.0
2018-May-23 21:27N 29°45' W 095°04'3 5.3
2018-May-23 20:59N 29°44' W 095°07'5 0.2
2018-May-22 19:07N 29°43' W 095°01'1 6.2
2018-May-22 18:58N 29°42' W 095°01'3 6.6
2018-May-22 18:30N 29°40' W 094°58'3 7.0
2018-May-22 18:00N 29°37' W 094°57'4 7.1
2018-May-22 17:30N 29°34' W 094°55'4 7.3
2018-May-22 16:59N 29°30' W 094°53'9 8.6
2018-May-22 15:55N 29°22' W 094°48'3 6.2
2018-May-22 15:30N 29°20' W 094°50'3 6.2
2018-May-22 15:00N 29°18' W 094°53'2 4.8
2018-May-22 14:30N 29°17' W 094°55'3 6.0
2018-May-22 14:00N 29°17' W 094°59'3 6.3
2018-May-22 13:30N 29°14' W 095°01'3 6.0
2018-May-22 13:00N 29°12' W 095°04'3 6.3
2018-May-22 12:30N 29°10' W 095°07'3 6.2
2018-May-22 12:00N 29°09' W 095°10'3 5.5
2018-May-22 11:30N 29°07' W 095°12'3 5.5
2018-May-22 11:00N 29°04' W 095°13'3 5.3
2018-May-22 10:30N 29°02' W 095°14'3 5.3
2018-May-22 10:00N 28°59' W 095°16'2 4.5
2018-May-22 09:30N 28°58' W 095°17'3 5.1
2018-May-22 08:58N 28°56' W 095°20'1 1.5
2018-May-22 08:30N 28°57' W 095°20'0 0.1
2018-May-22 08:00N 28°57' W 095°20'0 0.1
2018-May-22 07:30N 28°57' W 095°20'1 1.2
2018-May-22 06:58N 28°56' W 095°20'3 5.4
2018-May-22 06:27N 28°58' W 095°17'2 5.6
2018-May-22 06:00N 28°60' W 095°15'3 6.2
2018-May-22 05:30N 29°02' W 095°14'3 6.0
2018-May-22 05:00N 29°05' W 095°12'3 5.5
2018-May-22 04:30N 29°08' W 095°11'3 5.6
2018-May-22 04:00N 29°09' W 095°08'18 5.5
2018-May-22 00:45N 29°19' W 094°51'10 5.5
2018-May-21 22:56N 29°29' W 094°52'3 6.2
2018-May-21 22:30N 29°32' W 094°54'3 6.1
2018-May-21 22:00N 29°34' W 094°55'3 6.3
2018-May-21 21:30N 29°37' W 094°57'3 6.5
2018-May-21 21:00N 29°40' W 094°59'3 5.9
2018-May-21 20:30N 29°42' W 095°01'7 4.6
2018-May-21 18:58N 29°44' W 095°09'1 0.1
2018-May-21 00:48N 29°45' W 095°10'8 5.0
2018-May-20 23:17N 29°43' W 095°01'2 5.6
2018-May-20 22:59N 29°42' W 094°60'3 6.4
2018-May-20 22:27N 29°39' W 094°58'3 6.6
2018-May-20 22:00N 29°36' W 094°57'4 7.0
2018-May-20 21:30N 29°33' W 094°55'12 7.4
2018-May-20 19:52N 29°22' W 094°48'2 6.0
2018-May-20 19:30N 29°21' W 094°50'3 6.4
2018-May-20 19:00N 29°19' W 094°52'2 4.5
2018-May-20 18:30N 29°17' W 094°55'2 3.3
2018-May-20 18:00N 29°17' W 094°56'3 5.5
2018-May-20 17:30N 29°16' W 094°59'3 6.0
2018-May-20 17:00N 29°14' W 095°02'3 5.4
2018-May-20 16:30N 29°12' W 095°04'3 6.0
2018-May-20 16:00N 29°10' W 095°07'3 6.2
2018-May-20 15:30N 29°09' W 095°10'3 6.5
2018-May-20 15:00N 29°06' W 095°12'3 6.9
2018-May-20 14:30N 29°03' W 095°13'4 7.2
2018-May-20 14:00N 28°60' W 095°15'5 0.1
2018-May-19 00:54N 28°57' W 095°20'0 0.0
2018-May-19 00:30N 28°57' W 095°20'0 0.0
2018-May-19 00:00N 28°57' W 095°20'0 0.0
2018-May-18 23:30N 28°57' W 095°20'0 0.0
2018-May-18 23:00N 28°57' W 095°20'0 0.0
2018-May-18 22:30N 28°57' W 095°20'0 0.0
2018-May-18 22:00N 28°57' W 095°20'0 0.0
2018-May-18 21:30N 28°57' W 095°20'0 0.0
2018-May-18 21:00N 28°57' W 095°20'0 0.0
2018-May-18 20:15N 28°57' W 095°20'0 0.0
2018-May-18 19:05N 28°57' W 095°20'2 0.3
2018-May-18 12:18N 28°57' W 095°18'1 3.7
2018-May-18 11:56N 28°58' W 095°17'2 3.8
2018-May-18 11:30N 28°59' W 095°16'2 4.2
2018-May-18 11:00N 29°01' W 095°15'2 4.2
2018-May-18 10:29N 29°03' W 095°13'2 4.4
2018-May-18 10:00N 29°05' W 095°13'2 4.8
2018-May-18 09:30N 29°07' W 095°12'3 5.2
2018-May-18 09:00N 29°09' W 095°10'3 5.4
2018-May-18 08:30N 29°10' W 095°07'3 5.3
2018-May-18 08:00N 29°12' W 095°04'3 5.3
2018-May-18 07:30N 29°13' W 095°02'3 5.2
2018-May-18 07:00N 29°15' W 095°00'2 4.8
2018-May-18 06:30N 29°17' W 094°58'2 4.1
2018-May-18 06:00N 29°17' W 094°56'2 3.5
2018-May-18 05:30N 29°17' W 094°54'2 3.9
2018-May-18 05:00N 29°19' W 094°52'0 0.7
2018-May-18 04:30N 29°19' W 094°52'0 0.9
2018-May-18 04:00N 29°19' W 094°52'2 4.8
2018-May-18 03:30N 29°21' W 094°50'2 4.3
2018-May-18 03:00N 29°22' W 094°48'4 7.1
2018-May-18 02:30N 29°26' W 094°50'3 6.6
2018-May-18 02:00N 29°29' W 094°52'3 6.4
2018-May-18 01:30N 29°32' W 094°53'3 5.8
2018-May-18 01:00N 29°34' W 094°55'3 5.9
2018-May-18 00:30N 29°36' W 094°57'3 6.0
2018-May-18 00:00N 29°39' W 094°58'3 6.1
2018-May-17 23:27N 29°42' W 095°00'3 5.3
2018-May-17 22:59N 29°44' W 095°02'6 4.9
2018-May-17 21:52N 29°44' W 095°09'7 0.5
2018-May-17 09:17N 29°43' W 095°16'0 0.0
2018-May-17 09:00N 29°43' W 095°16'0 0.0
2018-May-17 08:18N 29°43' W 095°16'0 0.0
2018-May-17 05:54N 29°43' W 095°16'0 0.4
2018-May-17 05:30N 29°43' W 095°16'4 5.8
2018-May-17 04:51N 29°44' W 095°12'3 6.4
2018-May-17 04:25N 29°44' W 095°09'3 6.4
2018-May-17 04:00N 29°45' W 095°06'1 2.4
2018-May-17 03:30N 29°46' W 095°06'2 4.8
2018-May-17 03:00N 29°44' W 095°07'4 7.3
2018-May-17 02:27N 29°44' W 095°12'3 6.7
2018-May-17 01:57N 29°44' W 095°16'1 0.0
2018-May-16 12:54N 29°43' W 095°16'0 0.0
2018-May-16 12:17N 29°43' W 095°16'0 0.0
2018-May-16 11:59N 29°43' W 095°16'0 0.0
2018-May-16 11:30N 29°43' W 095°16'0 0.0
2018-May-16 10:59N 29°43' W 095°16'0 0.0
2018-May-16 09:23N 29°43' W 095°16'0 0.0
2018-May-16 08:45N 29°43' W 095°16'0 0.0
2018-May-16 08:19N 29°43' W 095°16'0 0.0
2018-May-16 08:00N 29°43' W 095°16'0 0.0
2018-May-16 07:30N 29°43' W 095°16'0 0.0
2018-May-16 06:55N 29°43' W 095°16'0 0.0
2018-May-16 06:30N 29°43' W 095°16'0 0.0
2018-May-16 06:00N 29°43' W 095°16'0 0.0
2018-May-16 05:30N 29°43' W 095°16'0 0.0
2018-May-16 03:43N 29°43' W 095°16'0 0.3
2018-May-16 03:30N 29°43' W 095°16'1 1.1
2018-May-16 02:59N 29°44' W 095°16'3 5.3
2018-May-16 02:30N 29°44' W 095°13'3 5.4
2018-May-16 02:00N 29°45' W 095°10'4 5.3
2018-May-16 01:15N 29°45' W 095°06'1 4.5
2018-May-16 00:56N 29°45' W 095°04'2 5.4
2018-May-16 00:29N 29°44' W 095°02'3 4.9
2018-May-15 23:57N 29°42' W 094°60'3 6.0
2018-May-15 23:30N 29°40' W 094°58'3 6.6
2018-May-15 23:00N 29°36' W 094°57'3 6.7
2018-May-15 22:30N 29°34' W 094°55'3 6.7
2018-May-15 22:00N 29°31' W 094°53'20 4.8
2018-May-15 17:52N 29°13' W 095°02'2 6.0
2018-May-15 17:30N 29°12' W 095°04'3 5.8
2018-May-15 17:00N 29°10' W 095°07'3 6.2
2018-May-15 16:30N 29°08' W 095°10'3 6.0
2018-May-15 16:00N 29°06' W 095°12'3 6.3
2018-May-15 15:30N 29°03' W 095°13'3 6.4
2018-May-15 15:00N 29°00' W 095°15'3 6.2
2018-May-15 14:30N 28°58' W 095°17'3 4.5
2018-May-15 13:57N 28°56' W 095°20'1 2.3
2018-May-15 13:25N 28°57' W 095°20'0 0.1
2018-May-15 13:00N 28°57' W 095°20'1 1.2
2018-May-15 12:30N 28°57' W 095°20'1 0.9
2018-May-15 11:54N 28°56' W 095°19'2 4.6
2018-May-15 11:30N 28°58' W 095°17'2 4.1
2018-May-15 11:00N 28°59' W 095°16'2 4.5
2018-May-15 10:30N 29°01' W 095°14'2 4.4
2018-May-15 10:01N 29°03' W 095°13'2 4.4
2018-May-15 09:31N 29°05' W 095°12'2 4.4
2018-May-15 09:00N 29°07' W 095°11'2 4.4
2018-May-15 08:30N 29°09' W 095°10'3 5.5
2018-May-15 08:00N 29°10' W 095°07'3 5.2
2018-May-15 07:30N 29°11' W 095°05'3 5.2
2018-May-15 07:00N 29°13' W 095°02'2 5.0
2018-May-15 06:30N 29°15' W 095°00'3 5.2
2018-May-15 06:00N 29°17' W 094°58'2 4.5
2018-May-15 05:30N 29°17' W 094°56'2 4.3
2018-May-15 05:00N 29°17' W 094°53'3 5.0
2018-May-15 04:29N 29°19' W 094°51'3 5.3
2018-May-15 04:00N 29°21' W 094°49'3 6.4
2018-May-15 03:30N 29°24' W 094°49'4 7.8
2018-May-15 03:00N 29°28' W 094°51'4 7.3
2018-May-15 02:30N 29°31' W 094°53'3 6.8
2018-May-15 02:00N 29°34' W 094°55'3 6.2
2018-May-15 01:30N 29°36' W 094°57'3 6.7
2018-May-15 01:00N 29°39' W 094°58'3 6.2
2018-May-15 00:30N 29°42' W 095°00'  
Track history (hours):
 
Tides and Currents Weather Stations Pressure Air Temp Water Temp Dewpoint Dewpoint Depression Visibility Wind Speed Wind Dir Waves Ship Positions

K K

Owner: Lafayette Workboat Rentals LLC., Broussard, LA. More information available from US FCC via Universal Licensing System and Coast Guard Vessel Documentation Center.

Last reported at 2018-May-24 08:54 UTC. Time now 2018-May-24 14:06 UTC.
Position N 28°57' W 095°18'.

Length 16 m; draft 6 m.

Type: Ship (hazmat cat D). MMSI: 367404620.

Date/timePositionNaut miles runAvg speedWind from/ knotsBaromVisibWave heightAir tempDewpointWater temp
2018-May-24 08:54N 28°57' W 095°18'2 5.9
2018-May-24 08:30N 28°58' W 095°17'3 5.8
2018-May-24 08:00N 29°01' W 095°15'3 5.3
2018-May-24 07:30N 29°03' W 095°13'3 5.2
2018-May-24 07:00N 29°05' W 095°12'3 5.2
2018-May-24 06:30N 29°08' W 095°11'3 5.5
2018-May-24 06:00N 29°09' W 095°08'3 5.6
2018-May-24 05:30N 29°11' W 095°06'3 5.6
2018-May-24 05:00N 29°12' W 095°03'2 4.7
2018-May-24 04:30N 29°14' W 095°01'3 5.3
2018-May-24 04:00N 29°16' W 094°59'3 5.2
2018-May-24 03:30N 29°17' W 094°57'3 5.3
2018-May-24 03:00N 29°17' W 094°54'3 5.9
2018-May-24 02:30N 29°19' W 094°51'3 5.7
2018-May-24 02:00N 29°21' W 094°49'10 6.5
2018-May-24 00:28N 29°31' W 094°53'3 6.4
2018-May-24 00:00N 29°33' W 094°55'3 6.2
2018-May-23 23:30N 29°36' W 094°57'3 6.2
2018-May-23 23:00N 29°39' W 094°58'3 6.3
2018-May-23 22:30N 29°41' W 094°59'4 5.5
2018-May-23 21:44N 29°44' W 095°03'2 6.0
2018-May-23 21:27N 29°45' W 095°04'3 5.3
2018-May-23 20:59N 29°44' W 095°07'5 0.2
2018-May-22 19:07N 29°43' W 095°01'1 6.2
2018-May-22 18:58N 29°42' W 095°01'3 6.6
2018-May-22 18:30N 29°40' W 094°58'3 7.0
2018-May-22 18:00N 29°37' W 094°57'4 7.1
2018-May-22 17:30N 29°34' W 094°55'4 7.3
2018-May-22 16:59N 29°30' W 094°53'9 8.6
2018-May-22 15:55N 29°22' W 094°48'3 6.2
2018-May-22 15:30N 29°20' W 094°50'3 6.2
2018-May-22 15:00N 29°18' W 094°53'2 4.8
2018-May-22 14:30N 29°17' W 094°55'3 6.0
2018-May-22 14:00N 29°17' W 094°59'3 6.3
2018-May-22 13:30N 29°14' W 095°01'3 6.0
2018-May-22 13:00N 29°12' W 095°04'3 6.3
2018-May-22 12:30N 29°10' W 095°07'3 6.2
2018-May-22 12:00N 29°09' W 095°10'3 5.5
2018-May-22 11:30N 29°07' W 095°12'3 5.5
2018-May-22 11:00N 29°04' W 095°13'3 5.3
2018-May-22 10:30N 29°02' W 095°14'3 5.3
2018-May-22 10:00N 28°59' W 095°16'2 4.5
2018-May-22 09:30N 28°58' W 095°17'3 5.1
2018-May-22 08:58N 28°56' W 095°20'1 1.5
2018-May-22 08:30N 28°57' W 095°20'0 0.1
2018-May-22 08:00N 28°57' W 095°20'0 0.1
2018-May-22 07:30N 28°57' W 095°20'1 1.2
2018-May-22 06:58N 28°56' W 095°20'3 5.4
2018-May-22 06:27N 28°58' W 095°17'2 5.6
2018-May-22 06:00N 28°60' W 095°15'3 6.2
2018-May-22 05:30N 29°02' W 095°14'3 6.0
2018-May-22 05:00N 29°05' W 095°12'3 5.5
2018-May-22 04:30N 29°08' W 095°11'3 5.6
2018-May-22 04:00N 29°09' W 095°08'18 5.5
2018-May-22 00:45N 29°19' W 094°51'10 5.5
2018-May-21 22:56N 29°29' W 094°52'3 6.2
2018-May-21 22:30N 29°32' W 094°54'3 6.1
2018-May-21 22:00N 29°34' W 094°55'3 6.3
2018-May-21 21:30N 29°37' W 094°57'3 6.5
2018-May-21 21:00N 29°40' W 094°59'3 5.9
2018-May-21 20:30N 29°42' W 095°01'7 4.6
2018-May-21 18:58N 29°44' W 095°09'1 0.1
2018-May-21 00:48N 29°45' W 095°10'8 5.0
2018-May-20 23:17N 29°43' W 095°01'2 5.6
2018-May-20 22:59N 29°42' W 094°60'3 6.4
2018-May-20 22:27N 29°39' W 094°58'3 6.6
2018-May-20 22:00N 29°36' W 094°57'4 7.0
2018-May-20 21:30N 29°33' W 094°55'12 7.4
2018-May-20 19:52N 29°22' W 094°48'2 6.0
2018-May-20 19:30N 29°21' W 094°50'3 6.4
2018-May-20 19:00N 29°19' W 094°52'2 4.5
2018-May-20 18:30N 29°17' W 094°55'2 3.3
2018-May-20 18:00N 29°17' W 094°56'3 5.5
2018-May-20 17:30N 29°16' W 094°59'3 6.0
2018-May-20 17:00N 29°14' W 095°02'3 5.4
2018-May-20 16:30N 29°12' W 095°04'3 6.0
2018-May-20 16:00N 29°10' W 095°07'3 6.2
2018-May-20 15:30N 29°09' W 095°10'3 6.5
2018-May-20 15:00N 29°06' W 095°12'3 6.9
2018-May-20 14:30N 29°03' W 095°13'4 7.2
2018-May-20 14:00N 28°60' W 095°15'5 0.1
2018-May-19 00:54N 28°57' W 095°20'0 0.0
2018-May-19 00:30N 28°57' W 095°20'0 0.0
2018-May-19 00:00N 28°57' W 095°20'0 0.0
2018-May-18 23:30N 28°57' W 095°20'0 0.0
2018-May-18 23:00N 28°57' W 095°20'0 0.0
2018-May-18 22:30N 28°57' W 095°20'0 0.0
2018-May-18 22:00N 28°57' W 095°20'0 0.0
2018-May-18 21:30N 28°57' W 095°20'0 0.0
2018-May-18 21:00N 28°57' W 095°20'0 0.0
2018-May-18 20:15N 28°57' W 095°20'0 0.0
2018-May-18 19:05N 28°57' W 095°20'2 0.3
2018-May-18 12:18N 28°57' W 095°18'1 3.7
2018-May-18 11:56N 28°58' W 095°17'2 3.8
2018-May-18 11:30N 28°59' W 095°16'2 4.2
2018-May-18 11:00N 29°01' W 095°15'2 4.2
2018-May-18 10:29N 29°03' W 095°13'2 4.4
2018-May-18 10:00N 29°05' W 095°13'2 4.8
2018-May-18 09:30N 29°07' W 095°12'3 5.2
2018-May-18 09:00N 29°09' W 095°10'3 5.4
2018-May-18 08:30N 29°10' W 095°07'3 5.3
2018-May-18 08:00N 29°12' W 095°04'3 5.3
2018-May-18 07:30N 29°13' W 095°02'3 5.2
2018-May-18 07:00N 29°15' W 095°00'2 4.8
2018-May-18 06:30N 29°17' W 094°58'2 4.1
2018-May-18 06:00N 29°17' W 094°56'2 3.5
2018-May-18 05:30N 29°17' W 094°54'2 3.9
2018-May-18 05:00N 29°19' W 094°52'0 0.7
2018-May-18 04:30N 29°19' W 094°52'0 0.9
2018-May-18 04:00N 29°19' W 094°52'2 4.8
2018-May-18 03:30N 29°21' W 094°50'2 4.3
2018-May-18 03:00N 29°22' W 094°48'4 7.1
2018-May-18 02:30N 29°26' W 094°50'3 6.6
2018-May-18 02:00N 29°29' W 094°52'3 6.4
2018-May-18 01:30N 29°32' W 094°53'3 5.8
2018-May-18 01:00N 29°34' W 094°55'3 5.9
2018-May-18 00:30N 29°36' W 094°57'3 6.0
2018-May-18 00:00N 29°39' W 094°58'3 6.1
2018-May-17 23:27N 29°42' W 095°00'3 5.3
2018-May-17 22:59N 29°44' W 095°02'6 4.9
2018-May-17 21:52N 29°44' W 095°09'7 0.5
2018-May-17 09:17N 29°43' W 095°16'0 0.0
2018-May-17 09:00N 29°43' W 095°16'0 0.0
2018-May-17 08:18N 29°43' W 095°16'0 0.0
2018-May-17 05:54N 29°43' W 095°16'0 0.4
2018-May-17 05:30N 29°43' W 095°16'4 5.8
2018-May-17 04:51N 29°44' W 095°12'3 6.4
2018-May-17 04:25N 29°44' W 095°09'3 6.4
2018-May-17 04:00N 29°45' W 095°06'1 2.4
2018-May-17 03:30N 29°46' W 095°06'2 4.8
2018-May-17 03:00N 29°44' W 095°07'4 7.3
2018-May-17 02:27N 29°44' W 095°12'3 6.7
2018-May-17 01:57N 29°44' W 095°16'1 0.0
2018-May-16 12:54N 29°43' W 095°16'0 0.0
2018-May-16 12:17N 29°43' W 095°16'0 0.0
2018-May-16 11:59N 29°43' W 095°16'0 0.0
2018-May-16 11:30N 29°43' W 095°16'0 0.0
2018-May-16 10:59N 29°43' W 095°16'0 0.0
2018-May-16 09:23N 29°43' W 095°16'0 0.0
2018-May-16 08:45N 29°43' W 095°16'0 0.0
2018-May-16 08:19N 29°43' W 095°16'0 0.0
2018-May-16 08:00N 29°43' W 095°16'0 0.0
2018-May-16 07:30N 29°43' W 095°16'0 0.0
2018-May-16 06:55N 29°43' W 095°16'0 0.0
2018-May-16 06:30N 29°43' W 095°16'0 0.0
2018-May-16 06:00N 29°43' W 095°16'0 0.0
2018-May-16 05:30N 29°43' W 095°16'0 0.0
2018-May-16 03:43N 29°43' W 095°16'0 0.3
2018-May-16 03:30N 29°43' W 095°16'1 1.1
2018-May-16 02:59N 29°44' W 095°16'3 5.3
2018-May-16 02:30N 29°44' W 095°13'3 5.4
2018-May-16 02:00N 29°45' W 095°10'4 5.3
2018-May-16 01:15N 29°45' W 095°06'1 4.5
2018-May-16 00:56N 29°45' W 095°04'2 5.4
2018-May-16 00:29N 29°44' W 095°02'3 4.9
2018-May-15 23:57N 29°42' W 094°60'3 6.0
2018-May-15 23:30N 29°40' W 094°58'3 6.6
2018-May-15 23:00N 29°36' W 094°57'3 6.7
2018-May-15 22:30N 29°34' W 094°55'3 6.7
2018-May-15 22:00N 29°31' W 094°53'20 4.8
2018-May-15 17:52N 29°13' W 095°02'2 6.0
2018-May-15 17:30N 29°12' W 095°04'3 5.8
2018-May-15 17:00N 29°10' W 095°07'3 6.2
2018-May-15 16:30N 29°08' W 095°10'3 6.0
2018-May-15 16:00N 29°06' W 095°12'3 6.3
2018-May-15 15:30N 29°03' W 095°13'3 6.4
2018-May-15 15:00N 29°00' W 095°15'3 6.2
2018-May-15 14:30N 28°58' W 095°17'3 4.5
2018-May-15 13:57N 28°56' W 095°20'1 2.3
2018-May-15 13:25N 28°57' W 095°20'0 0.1
2018-May-15 13:00N 28°57' W 095°20'1 1.2
2018-May-15 12:30N 28°57' W 095°20'1 0.9
2018-May-15 11:54N 28°56' W 095°19'2 4.6
2018-May-15 11:30N 28°58' W 095°17'2 4.1
2018-May-15 11:00N 28°59' W 095°16'2 4.5
2018-May-15 10:30N 29°01' W 095°14'2 4.4
2018-May-15 10:01N 29°03' W 095°13'2 4.4
2018-May-15 09:31N 29°05' W 095°12'2 4.4
2018-May-15 09:00N 29°07' W 095°11'2 4.4
2018-May-15 08:30N 29°09' W 095°10'3 5.5
2018-May-15 08:00N 29°10' W 095°07'3 5.2
2018-May-15 07:30N 29°11' W 095°05'3 5.2
2018-May-15 07:00N 29°13' W 095°02'2 5.0
2018-May-15 06:30N 29°15' W 095°00'3 5.2
2018-May-15 06:00N 29°17' W 094°58'2 4.5
2018-May-15 05:30N 29°17' W 094°56'2 4.3
2018-May-15 05:00N 29°17' W 094°53'3 5.0
2018-May-15 04:29N 29°19' W 094°51'3 5.3
2018-May-15 04:00N 29°21' W 094°49'3 6.4
2018-May-15 03:30N 29°24' W 094°49'4 7.8
2018-May-15 03:00N 29°28' W 094°51'4 7.3
2018-May-15 02:30N 29°31' W 094°53'3 6.8
2018-May-15 02:00N 29°34' W 094°55'3 6.2
2018-May-15 01:30N 29°36' W 094°57'3 6.7
2018-May-15 01:00N 29°39' W 094°58'3 6.2
2018-May-15 00:30N 29°42' W 095°00'  

Dump ship's entire track history